Time;durP1;ratioP1;P1;durP2;ratioP2;P2;SDS_P1;SDS_P2;PMS_P1;PMS_P2;Temp;Humidity;BMP_temperature;BMP_pressure;BME280_temperature;BME280_humidity;BME280_pressure;Samples;Min_cycle;Max_cycle;Signal;HPM_P1;HPM_P2
2022/10/11 00:01:44;;;;;;;;;4.00;1.33;;;;;14.66;64.42;101911.06;4942877;28;45568;-71
2022/10/11 00:04:10;;;;;;;;;4.67;3.67;;;;;14.13;64.42;101845.41;4960414;28;45533;-72
2022/10/11 00:06:37;;;;;;;;;6.00;1.00;;;;;14.37;64.15;101909.19;4959874;28;47440;-72
2022/10/11 00:09:03;;;;;;;;;4.00;3.00;;;;;14.44;63.72;101913.06;4960571;28;45536;-72
2022/10/11 00:11:29;;;;;;;;;1.67;1.00;;;;;13.92;64.44;101847.38;4960558;28;45256;-69
2022/10/11 00:13:55;;;;;;;;;2.33;1.00;;;;;14.27;64.65;101901.19;4961507;28;45336;-70
2022/10/11 00:16:20;;;;;;;;;0.33;0.33;;;;;14.44;64.68;101923.75;4959040;28;48969;-70
2022/10/11 00:18:45;;;;;;;;;3.33;2.33;;;;;14.42;64.87;101914.16;4959295;28;45734;-71
2022/10/11 00:21:13;;;;;;;;;7.00;3.00;;;;;14.21;64.66;101896.38;4960614;28;45589;-70
2022/10/11 00:23:39;;;;;;;;;1.67;1.67;;;;;14.26;64.26;101895.97;4960442;28;46064;-72
2022/10/11 00:26:05;;;;;;;;;1.67;1.67;;;;;14.43;64.13;101937.25;4960443;28;46484;-71
2022/10/11 00:28:32;;;;;;;;;1.00;1.00;;;;;13.74;63.79;101811.59;4960489;28;45561;-71
2022/10/11 00:30:57;;;;;;;;;1.67;1.67;;;;;14.36;63.60;101928.06;4961139;28;45526;-71
2022/10/11 00:33:22;;;;;;;;;2.67;1.67;;;;;14.22;64.03;101908.78;4960552;28;45291;-71
2022/10/11 00:35:48;;;;;;;;;1.33;0.00;;;;;14.11;63.84;101892.00;4959892;28;45656;-70
2022/10/11 00:38:13;;;;;;;;;4.67;2.33;;;;;13.46;63.33;101782.03;4961821;28;45275;-71
2022/10/11 00:40:39;;;;;;;;;3.00;2.33;;;;;14.08;62.83;101869.06;4962212;28;45347;-72
2022/10/11 00:43:15;;;;;;;;;4.33;0.67;;;;;13.82;62.71;101811.78;4959960;28;45157;-70
2022/10/11 00:45:56;;;;;;;;;4.33;1.67;;;;;14.49;62.79;101942.91;4959311;28;45779;-72
2022/10/11 00:48:49;;;;;;;;;4.33;3.00;;;;;13.54;62.77;101784.00;4958147;28;45669;-71
2022/10/11 00:51:33;;;;;;;;;3.00;1.00;;;;;14.44;62.55;101937.13;4959549;28;45491;-72
2022/10/11 00:54:00;;;;;;;;;3.00;1.67;;;;;14.17;63.15;101911.00;4959858;28;45405;-71
2022/10/11 00:56:31;;;;;;;;;3.67;2.67;;;;;14.30;63.36;101937.50;4959509;28;46530;-70
2022/10/11 00:59:01;;;;;;;;;2.00;2.00;;;;;14.32;62.99;101940.88;4959328;28;45429;-72
2022/10/11 01:01:27;;;;;;;;;1.33;1.33;;;;;13.75;63.24;101851.56;4959162;28;45331;-71
2022/10/11 01:03:52;;;;;;;;;4.00;1.67;;;;;14.20;62.95;101940.16;4957964;28;45426;-72
2022/10/11 01:06:23;;;;;;;;;5.00;2.33;;;;;14.17;62.82;101919.03;4959217;28;46491;-72
2022/10/11 01:08:50;;;;;;;;;3.00;2.00;;;;;14.24;62.62;101940.75;4961516;28;45445;-72
2022/10/11 01:11:20;;;;;;;;;2.00;2.00;;;;;14.04;63.07;101923.81;4961815;28;45362;-73
2022/10/11 01:13:54;;;;;;;;;3.00;1.67;;;;;14.08;62.98;101938.59;4959217;28;45498;-71
2022/10/11 01:16:58;;;;;;;;;2.00;2.00;;;;;14.05;63.20;101938.88;4958819;28;46911;-71
2022/10/11 01:19:44;;;;;;;;;3.33;2.33;;;;;13.76;63.42;101897.84;4957827;28;45755;-71
2022/10/11 01:22:42;;;;;;;;;4.00;1.67;;;;;13.83;63.42;101941.78;4959585;28;45245;-71
2022/10/11 01:25:46;;;;;;;;;5.00;1.67;;;;;13.81;63.52;101946.38;4954688;28;45152;-71
2022/10/11 01:28:23;;;;;;;;;1.67;1.33;;;;;13.87;63.51;101938.69;4958787;28;45970;-71
2022/10/11 01:30:50;;;;;;;;;2.33;1.00;;;;;13.65;63.09;101878.28;4958952;28;45464;-70
2022/10/11 01:33:34;;;;;;;;;5.33;2.00;;;;;14.04;62.68;101936.34;4958637;28;45370;-71
2022/10/11 01:36:05;;;;;;;;;2.33;2.33;;;;;13.94;62.79;101942.50;4957520;28;45577;-70
2022/10/11 01:38:51;;;;;;;;;2.00;2.00;;;;;13.77;62.89;101926.25;4957916;28;45621;-71
2022/10/11 01:41:27;;;;;;;;;3.67;1.00;;;;;12.97;62.86;101806.84;4958596;28;45232;-71
2022/10/11 01:43:58;;;;;;;;;4.33;3.00;;;;;13.69;63.37;101927.78;4957222;28;45304;-72
2022/10/11 01:46:25;;;;;;;;;3.33;2.00;;;;;13.14;63.24;101834.75;4957584;28;45224;-71
2022/10/11 01:48:53;;;;;;;;;3.67;2.00;;;;;13.34;63.34;101895.31;4959945;28;46049;-69
2022/10/11 01:51:30;;;;;;;;;3.67;2.67;;;;;13.50;63.58;101929.53;4961799;28;45511;-72
2022/10/11 01:54:07;;;;;;;;;2.33;2.33;;;;;13.07;63.18;101861.97;4958624;28;45637;-71
2022/10/11 01:56:54;;;;;;;;;5.00;3.00;;;;;13.57;63.30;101946.72;4958580;28;45391;-73
2022/10/11 01:59:29;;;;;;;;;3.33;1.67;;;;;13.54;63.52;101942.50;4956710;28;47753;-71
2022/10/11 02:02:08;;;;;;;;;1.67;1.67;;;;;13.58;63.31;101941.22;4958280;28;45560;-70
2022/10/11 02:04:48;;;;;;;;;0.67;0.67;;;;;13.59;62.89;101947.41;4957169;28;45455;-71
2022/10/11 02:07:32;;;;;;;;;3.67;2.67;;;;;13.55;63.13;101946.00;4957107;28;45472;-73
2022/10/11 02:10:14;;;;;;;;;0.33;0.33;;;;;13.53;62.65;101934.59;4958210;28;46579;-71
2022/10/11 02:12:56;;;;;;;;;3.00;2.00;;;;;13.54;62.66;101945.16;4957161;28;45517;-71
2022/10/11 02:15:27;;;;;;;;;2.00;1.33;;;;;13.32;62.76;101910.63;4958892;28;45555;-70
2022/10/11 02:17:59;;;;;;;;;1.33;1.33;;;;;13.45;62.74;101932.63;4959197;28;45354;-73
2022/10/11 02:20:29;;;;;;;;;2.67;2.67;;;;;13.15;62.74;101906.69;4957658;28;46639;-71
2022/10/11 02:23:05;;;;;;;;;2.00;2.00;;;;;12.89;62.75;101858.22;4956893;28;45232;-72
2022/10/11 02:25:34;;;;;;;;;3.00;3.00;;;;;13.21;63.41;101937.38;4958327;28;45285;-72
2022/10/11 02:28:03;;;;;;;;;2.00;2.00;;;;;13.19;63.27;101942.00;4956896;28;45465;-71
2022/10/11 02:30:30;;;;;;;;;8.00;2.00;;;;;13.21;63.49;101932.03;4957908;28;46437;-71
2022/10/11 02:32:58;;;;;;;;;3.67;1.67;;;;;13.16;63.16;101944.91;4957857;28;45295;-72
2022/10/11 02:35:28;;;;;;;;;3.00;3.00;;;;;13.11;63.60;101948.00;4958001;28;45285;-71
2022/10/11 02:38:04;;;;;;;;;4.00;2.00;;;;;13.01;63.17;101923.91;4956808;28;45671;-71
2022/10/11 02:40:36;;;;;;;;;5.00;3.33;;;;;13.05;63.21;101929.84;4956484;28;48100;-73
2022/10/11 02:43:17;;;;;;;;;3.33;2.67;;;;;13.10;63.27;101944.47;4940043;28;45484;-73
2022/10/11 02:45:48;;;;;;;;;1.67;1.67;;;;;12.79;62.95;101887.50;4957933;28;45268;-72
2022/10/11 02:48:14;;;;;;;;;6.00;1.67;;;;;13.17;63.01;101943.94;4958236;28;45296;-70
2022/10/11 02:50:41;;;;;;;;;3.00;2.67;;;;;12.26;62.60;101780.03;4957588;28;47685;-71
2022/10/11 02:53:07;;;;;;;;;4.00;2.67;;;;;12.78;62.83;101877.81;4961318;28;45335;-71
2022/10/11 02:55:32;;;;;;;;;3.00;1.33;;;;;13.14;63.06;101938.88;4961255;28;45429;-71
2022/10/11 02:57:59;;;;;;;;;3.67;1.00;;;;;12.70;62.94;101868.78;4961121;28;45471;-72
2022/10/11 03:00:24;;;;;;;;;5.67;2.67;;;;;13.08;62.90;101945.59;4964380;28;45927;-72
2022/10/11 03:02:49;;;;;;;;;5.33;2.00;;;;;12.10;63.48;101798.28;4960949;28;45484;-71
2022/10/11 03:05:15;;;;;;;;;2.33;2.33;;;;;13.00;63.22;101946.22;4960915;28;50056;-71
2022/10/11 03:07:40;;;;;;;;;4.00;2.00;;;;;13.03;63.21;101946.00;4961167;28;45625;-72
2022/10/11 03:10:06;;;;;;;;;4.33;2.00;;;;;12.60;63.28;101889.19;4960747;28;45830;-71
2022/10/11 03:12:31;;;;;;;;;3.33;1.33;;;;;12.85;62.95;101915.53;4960805;28;45343;-72
2022/10/11 03:14:57;;;;;;;;;3.33;3.33;;;;;12.94;63.05;101920.06;4960865;28;45382;-73
2022/10/11 03:17:22;;;;;;;;;2.00;0.67;;;;;12.24;62.66;101806.00;4959581;28;45501;-71
2022/10/11 03:19:48;;;;;;;;;3.33;2.33;;;;;13.02;63.05;101948.78;4960738;28;46642;-72
2022/10/11 03:22:13;;;;;;;;;3.00;2.33;;;;;12.98;62.60;101932.16;4960604;28;45507;-72
2022/10/11 03:24:39;;;;;;;;;3.67;3.00;;;;;12.80;62.75;101901.69;4959524;28;45407;-71
2022/10/11 03:27:04;;;;;;;;;3.33;1.00;;;;;12.63;62.02;101855.13;4960896;28;45547;-72
2022/10/11 03:29:29;;;;;;;;;3.67;2.67;;;;;12.89;61.74;101906.28;4960554;28;45947;-71
2022/10/11 03:31:55;;;;;;;;;1.33;1.00;;;;;13.16;62.28;101963.63;4960577;28;45341;-72
2022/10/11 03:34:20;;;;;;;;;1.67;1.67;;;;;13.06;62.60;101936.88;4960829;28;45472;-71
2022/10/11 03:36:46;;;;;;;;;2.67;2.33;;;;;12.77;62.08;101897.47;4960924;28;45165;-71
2022/10/11 03:39:11;;;;;;;;;4.00;1.67;;;;;12.98;62.25;101926.81;4960447;28;47631;-72
2022/10/11 03:41:37;;;;;;;;;4.00;3.00;;;;;13.21;61.93;101951.59;4963080;28;45432;-71
2022/10/11 03:44:02;;;;;;;;;3.00;2.00;;;;;13.06;61.64;101927.03;4960343;28;45345;-72
2022/10/11 03:46:28;;;;;;;;;1.67;0.67;;;;;13.28;61.34;101959.94;4960831;28;45516;-70
2022/10/11 03:48:53;;;;;;;;;3.00;3.00;;;;;13.30;61.17;101957.97;4960094;28;46129;-71
2022/10/11 03:51:19;;;;;;;;;3.00;3.00;;;;;13.20;61.72;101976.59;4958884;28;45563;-71
2022/10/11 03:53:44;;;;;;;;;1.00;1.00;;;;;13.04;61.54;101957.50;4960495;28;45289;-74
2022/10/11 03:56:09;;;;;;;;;5.33;4.33;;;;;12.17;62.05;101818.97;4960178;28;45304;-71
2022/10/11 03:58:35;;;;;;;;;2.00;2.00;;;;;13.05;62.32;101954.72;4959790;28;46454;-71
2022/10/11 04:01:00;;;;;;;;;2.00;2.00;;;;;13.00;62.06;101946.22;4959960;28;45483;-70
2022/10/11 04:03:26;;;;;;;;;4.00;3.00;;;;;12.95;61.92;101943.09;4959439;28;45386;-69
2022/10/11 04:05:51;;;;;;;;;3.00;1.00;;;;;12.96;61.63;101935.94;4960355;28;45316;-71
2022/10/11 04:08:17;;;;;;;;;1.67;1.67;;;;;13.15;61.50;101964.59;4959854;28;46887;-72
2022/10/11 04:10:42;;;;;;;;;3.00;3.00;;;;;13.06;61.70;101967.09;4961824;28;45213;-71
2022/10/11 04:13:11;;;;;;;;;2.00;2.00;;;;;12.30;61.28;101839.28;4960190;28;45462;-70
2022/10/11 04:15:37;;;;;;;;;3.33;2.33;;;;;13.21;61.72;101978.28;4960103;28;45205;-70
2022/10/11 04:18:04;;;;;;;;;5.67;2.67;;;;;13.28;60.72;101976.81;4959600;28;45217;-73
2022/10/11 04:20:29;;;;;;;;;2.33;2.33;;;;;12.80;60.90;101920.38;4959780;28;45526;-73
2022/10/11 04:22:55;;;;;;;;;4.67;3.00;;;;;13.25;60.66;101976.22;4959384;28;45625;-69
2022/10/11 04:25:20;;;;;;;;;3.00;2.33;;;;;12.95;60.75;101927.09;4959863;28;45282;-71
2022/10/11 04:27:45;;;;;;;;;1.67;1.67;;;;;13.28;60.40;101975.97;4959405;28;46432;-74
2022/10/11 04:30:11;;;;;;;;;2.00;2.00;;;;;13.38;60.26;101983.03;4959416;28;45471;-72
2022/10/11 04:32:37;;;;;;;;;3.67;2.67;;;;;13.35;60.02;101990.47;4959856;28;45344;-70
2022/10/11 04:35:02;;;;;;;;;4.67;3.00;;;;;13.25;60.09;101969.06;4959759;28;45382;-72
2022/10/11 04:37:28;;;;;;;;;1.33;1.33;;;;;13.33;59.91;101987.09;4958102;28;47467;-71
2022/10/11 04:39:53;;;;;;;;;4.00;4.00;;;;;13.04;59.71;101931.66;4958013;28;45796;-71
2022/10/11 04:42:19;;;;;;;;;1.00;1.00;;;;;12.66;59.64;101897.53;4959552;28;45311;-69
2022/10/11 04:44:45;;;;;;;;;3.67;3.67;;;;;13.22;60.27;101992.53;4959796;28;45260;-70
2022/10/11 04:47:11;;;;;;;;;2.00;2.00;;;;;13.20;60.36;101994.44;4959031;28;45600;-71
2022/10/11 04:49:37;;;;;;;;;3.33;2.33;;;;;12.42;60.32;101863.13;4958202;28;45248;-72
2022/10/11 04:52:02;;;;;;;;;3.33;3.00;;;;;13.08;60.63;101969.63;4959387;28;45330;-73
2022/10/11 04:54:27;;;;;;;;;3.00;3.00;;;;;12.32;60.40;101850.66;4959427;28;45765;-72
2022/10/11 04:56:53;;;;;;;;;9.00;2.00;;;;;13.00;60.58;101988.94;4959139;28;46627;-70
2022/10/11 04:59:18;;;;;;;;;3.00;2.00;;;;;12.90;60.65;101972.03;4959330;28;45609;-71
2022/10/11 05:01:44;;;;;;;;;2.67;2.00;;;;;12.86;60.91;101997.28;4960133;28;45512;-72
2022/10/11 05:04:09;;;;;;;;;5.33;1.33;;;;;12.85;61.10;101984.91;4958374;28;45392;-73
2022/10/11 05:06:35;;;;;;;;;4.67;2.00;;;;;12.01;61.08;101871.00;4959220;28;45631;-74
2022/10/11 05:09:00;;;;;;;;;3.00;3.00;;;;;12.50;61.08;101958.50;4959245;28;45408;-72
2022/10/11 05:11:25;;;;;;;;;3.67;3.00;;;;;12.48;61.78;101958.63;4959152;28;45597;-71
2022/10/11 05:13:51;;;;;;;;;4.33;3.33;;;;;12.31;61.65;101932.47;4959073;28;45377;-71
2022/10/11 05:16:17;;;;;;;;;2.00;2.00;;;;;12.58;61.35;101988.03;4959137;28;46720;-74
2022/10/11 05:18:43;;;;;;;;;6.67;4.00;;;;;12.60;61.60;101990.56;4959208;28;45777;-73
2022/10/11 05:21:20;;;;;;;;;5.00;3.00;;;;;12.45;61.85;101977.53;4963641;28;45431;-72
2022/10/11 05:23:47;;;;;;;;;3.00;1.00;;;;;12.47;62.36;101985.41;4958840;28;45419;-73
2022/10/11 05:26:14;;;;;;;;;7.00;4.00;;;;;12.58;62.28;101987.19;4959039;28;45621;-72
2022/10/11 05:28:39;;;;;;;;;2.67;2.33;;;;;11.01;62.53;101763.66;4958984;28;45132;-71
2022/10/11 05:31:05;;;;;;;;;3.33;2.67;;;;;12.21;61.95;101947.53;4957741;28;45274;-73
2022/10/11 05:33:31;;;;;;;;;2.67;2.67;;;;;12.40;62.21;101995.72;4959271;28;45485;-71
2022/10/11 05:35:56;;;;;;;;;1.33;1.00;;;;;12.13;62.73;101960.66;4957666;28;48678;-74
2022/10/11 05:38:22;;;;;;;;;3.67;3.00;;;;;12.10;62.54;101958.22;4958640;28;45308;-73
2022/10/11 05:40:47;;;;;;;;;3.67;2.00;;;;;12.33;62.60;101994.53;4959234;28;45766;-73
2022/10/11 05:43:13;;;;;;;;;3.00;3.00;;;;;11.67;62.50;101894.19;4958072;28;45451;-77
2022/10/11 05:45:40;;;;;;;;;4.00;3.00;;;;;11.95;62.57;101939.00;4957010;28;48308;-72
2022/10/11 05:48:06;;;;;;;;;6.00;3.00;;;;;11.75;62.60;101908.59;4958671;28;45428;-73
2022/10/11 05:50:33;;;;;;;;;4.00;3.00;;;;;12.24;62.12;101995.31;4959123;28;45437;-72
2022/10/11 05:52:59;;;;;;;;;6.67;4.00;;;;;12.29;62.32;102001.09;4941307;28;45554;-75
2022/10/11 05:55:24;;;;;;;;;2.67;2.67;;;;;12.37;62.30;102003.13;4957146;28;47645;-74
2022/10/11 05:57:54;;;;;;;;;6.00;4.00;;;;;12.29;61.97;101974.44;4958545;28;45294;-72
2022/10/11 06:00:20;;;;;;;;;4.67;3.67;;;;;12.34;62.35;102012.22;4958934;28;45216;-74
2022/10/11 06:02:46;;;;;;;;;2.33;2.00;;;;;11.77;62.20;101938.63;4959509;28;45434;-73
2022/10/11 06:05:12;;;;;;;;;5.33;4.33;;;;;11.90;62.87;101951.84;4957641;28;46408;-74
2022/10/11 06:07:37;;;;;;;;;5.00;2.33;;;;;12.30;62.56;102002.78;4958407;28;45582;-73
2022/10/11 06:10:04;;;;;;;;;2.67;2.67;;;;;12.37;62.16;102009.31;4960976;28;45156;-71
2022/10/11 06:12:30;;;;;;;;;3.67;2.33;;;;;12.38;61.50;102005.66;4959782;28;45457;-71
2022/10/11 06:14:55;;;;;;;;;3.00;3.00;;;;;11.97;62.06;101973.50;4956980;28;47556;-73
2022/10/11 06:17:22;;;;;;;;;3.00;3.00;;;;;11.80;61.72;101943.72;4958278;28;45358;-71
2022/10/11 06:19:48;;;;;;;;;3.00;3.00;;;;;12.19;61.83;102003.66;4957124;28;45415;-76
2022/10/11 06:22:14;;;;;;;;;4.00;2.67;;;;;12.25;61.97;102013.00;4957477;28;45541;-74
2022/10/11 06:24:39;;;;;;;;;2.00;2.00;;;;;11.95;62.07;101981.63;4965794;28;45453;-72
2022/10/11 06:27:04;;;;;;;;;6.00;4.33;;;;;12.26;61.67;102014.69;4980750;28;45284;-74
2022/10/11 06:29:30;;;;;;;;;2.67;2.67;;;;;12.00;61.69;101978.59;4964393;28;45316;-73
2022/10/11 06:31:55;;;;;;;;;7.00;3.67;;;;;12.38;61.27;102023.50;4967709;28;45251;-73
2022/10/11 06:34:21;;;;;;;;;3.67;2.67;;;;;11.98;61.31;101964.53;4965757;28;45986;-72
2022/10/11 06:36:46;;;;;;;;;3.00;2.00;;;;;12.07;61.47;101966.50;4971416;28;46615;-72
2022/10/11 06:39:12;;;;;;;;;3.00;3.00;;;;;12.24;61.12;101984.63;4964889;28;45286;-72
2022/10/11 06:41:37;;;;;;;;;6.67;4.33;;;;;12.01;61.03;101941.16;4964705;28;45400;-73
2022/10/11 06:44:03;;;;;;;;;4.67;4.00;;;;;12.51;60.83;102028.69;4964168;28;46083;-74
2022/10/11 06:46:31;;;;;;;;;5.67;5.67;;;;;12.48;60.83;102027.13;4964131;28;45509;-74
2022/10/11 06:48:57;;;;;;;;;5.00;4.67;;;;;9.66;61.15;101568.69;4964204;28;45545;-72
2022/10/11 06:51:23;;;;;;;;;4.00;4.00;;;;;12.15;61.00;101988.88;4964154;28;45451;-74
2022/10/11 06:53:50;;;;;;;;;6.00;4.33;;;;;12.55;60.50;102035.47;4964383;28;46215;-73
2022/10/11 06:56:16;;;;;;;;;7.00;5.67;;;;;12.55;60.72;102030.13;4964984;28;45393;-70
2022/10/11 06:58:42;;;;;;;;;3.00;3.00;;;;;12.51;60.64;102020.69;4957186;28;45501;-71
2022/10/11 07:01:10;;;;;;;;;5.33;4.67;;;;;12.35;60.99;101992.59;4959967;28;45262;-72
2022/10/11 07:03:36;;;;;;;;;3.67;3.67;;;;;12.55;60.69;102035.47;4963830;28;45760;-74
2022/10/11 07:06:10;;;;;;;;;3.33;3.00;;;;;12.56;60.83;102021.16;4966865;28;45560;-73
2022/10/11 07:08:36;;;;;;;;;3.67;3.67;;;;;12.49;60.19;102004.81;4965754;28;45396;-72
2022/10/11 07:11:07;;;;;;;;;9.33;7.67;;;;;12.82;60.13;102054.56;4965752;28;45497;-72
2022/10/11 07:13:33;;;;;;;;;3.00;3.00;;;;;11.92;59.96;101885.09;4964911;28;45562;-72
2022/10/11 07:16:08;;;;;;;;;3.67;3.00;;;;;12.39;59.45;101986.03;4963958;28;45397;-70
2022/10/11 07:18:34;;;;;;;;;5.00;5.00;;;;;12.49;59.10;101978.97;4963237;28;45440;-73
2022/10/11 07:21:07;;;;;;;;;3.67;3.00;;;;;12.92;59.10;102035.94;4964039;28;45197;-73
2022/10/11 07:23:33;;;;;;;;;3.00;1.33;;;;;12.73;58.33;102004.59;4963043;28;46257;-72
2022/10/11 07:25:59;;;;;;;;;6.00;5.00;;;;;12.84;58.53;102023.25;4962138;28;45993;-72
2022/10/11 07:28:25;;;;;;;;;3.67;2.67;;;;;12.92;57.77;102020.78;4964061;28;45417;-72
2022/10/11 07:30:51;;;;;;;;;5.67;5.33;;;;;13.22;58.07;102041.44;4946462;28;45381;-75
2022/10/11 07:33:17;;;;;;;;;10.00;6.00;;;;;13.17;56.69;102005.34;4964249;28;45764;-72
2022/10/11 07:35:42;;;;;;;;;5.00;5.00;;;;;13.43;56.73;102038.78;4979702;28;45324;-73
2022/10/11 07:38:08;;;;;;;;;5.33;3.00;;;;;13.67;55.71;102068.72;4980403;28;46032;-76
2022/10/11 07:40:41;;;;;;;;;5.00;4.00;;;;;13.63;56.08;102035.22;4980838;28;45581;-73
2022/10/11 07:43:07;;;;;;;;;2.67;1.67;;;;;13.51;55.36;101996.19;4981214;28;46557;-74
2022/10/11 07:45:32;;;;;;;;;5.00;3.33;;;;;13.87;54.39;102036.75;4980320;28;45504;-72
2022/10/11 07:47:58;;;;;;;;;5.33;4.67;;;;;14.09;54.25;102076.66;4968903;28;45784;-72
2022/10/11 07:50:24;;;;;;;;;12.00;4.00;;;;;13.90;54.05;102037.31;4961333;28;45323;-73
2022/10/11 07:52:49;;;;;;;;;6.00;3.67;;;;;14.06;53.39;102020.78;4956863;28;45991;-71
2022/10/11 07:55:15;;;;;;;;;3.33;3.33;;;;;14.16;53.21;102026.16;4941899;28;46707;-73
2022/10/11 07:57:41;;;;;;;;;5.67;4.00;;;;;14.47;52.85;102027.81;4959935;28;45612;-73
2022/10/11 08:00:07;;;;;;;;;6.67;3.33;;;;;15.21;51.78;102078.16;4942993;28;45550;-73
2022/10/11 08:02:32;;;;;;;;;2.00;2.00;;;;;14.81;49.81;101939.91;4960119;28;47035;-71
2022/10/11 08:04:58;;;;;;;;;1.33;0.67;;;;;15.71;48.42;102016.34;4943174;28;45466;-73
2022/10/11 08:07:23;;;;;;;;;8.33;4.00;;;;;16.69;47.29;102078.31;4958896;28;45332;-73
2022/10/11 08:09:49;;;;;;;;;2.33;2.33;;;;;16.88;46.51;102084.53;4960002;28;45470;-74
2022/10/11 08:12:14;;;;;;;;;3.00;1.33;;;;;17.10;45.80;102092.13;4960544;28;46461;-74
2022/10/11 08:14:40;;;;;;;;;3.33;3.33;;;;;16.99;45.62;102078.91;4960072;28;45298;-72
2022/10/11 08:17:06;;;;;;;;;4.00;4.00;;;;;16.92;45.56;102026.81;4958872;28;45510;-72
2022/10/11 08:19:32;;;;;;;;;3.00;3.00;;;;;17.11;45.11;102072.31;4952365;28;45473;-72
2022/10/11 08:21:57;;;;;;;;;4.00;1.67;;;;;17.01;45.03;102023.19;4964075;28;46612;-73
2022/10/11 08:24:24;;;;;;;;;5.00;4.00;;;;;17.13;44.96;102056.91;4943357;28;45569;-74
2022/10/11 08:26:50;;;;;;;;;3.00;3.00;;;;;17.33;44.89;102087.97;4942725;28;45445;-74
2022/10/11 08:29:18;;;;;;;;;4.67;4.00;;;;;16.93;45.08;102047.31;4959921;28;45330;-73
2022/10/11 08:31:43;;;;;;;;;4.00;4.00;;;;;17.42;44.72;102093.41;4958443;28;47866;-75
2022/10/11 08:34:10;;;;;;;;;5.00;4.00;;;;;17.96;44.72;102104.91;4960980;28;45449;-74
2022/10/11 08:36:36;;;;;;;;;5.00;2.67;;;;;17.43;43.80;101966.06;4944815;28;45427;-78
2022/10/11 08:39:03;;;;;;;;;5.67;3.67;;;;;18.40;43.06;102066.09;4963333;28;45669;-77
2022/10/11 08:41:45;;;;;;;;;3.67;3.67;;;;;18.35;42.76;102000.28;4960439;28;45995;-72
2022/10/11 08:44:18;;;;;;;;;6.33;5.33;;;;;18.12;41.56;101978.50;4961370;28;45485;-73
2022/10/11 08:46:49;;;;;;;;;5.00;4.00;;;;;19.06;41.43;102086.84;4960169;28;45295;-71
2022/10/11 08:49:18;;;;;;;;;5.67;3.67;;;;;19.31;41.35;102103.03;4957314;28;45356;-71
2022/10/11 08:51:58;;;;;;;;;3.00;3.00;;;;;19.35;40.42;102091.72;4957075;28;46408;-72
2022/10/11 08:54:48;;;;;;;;;4.33;3.00;;;;;19.28;40.56;102095.28;4955318;28;46077;-72
2022/10/11 08:57:18;;;;;;;;;8.67;6.00;;;;;18.81;40.10;101966.53;4959569;28;45364;-70
2022/10/11 08:59:54;;;;;;;;;3.67;3.00;;;;;19.47;39.99;102113.81;4961643;28;45474;-71
2022/10/11 09:02:27;;;;;;;;;5.33;3.00;;;;;19.44;39.98;102109.59;4968905;28;45973;-72
2022/10/11 09:04:54;;;;;;;;;4.67;3.00;;;;;19.31;39.73;102076.06;4960333;28;45482;-72
2022/10/11 09:07:22;;;;;;;;;3.00;2.00;;;;;19.73;39.55;102108.25;4959684;28;45511;-72
2022/10/11 09:10:21;;;;;;;;;3.67;3.67;;;;;19.51;38.45;101993.78;4962757;28;45295;-73
2022/10/11 09:13:05;;;;;;;;;1.00;1.00;;;;;21.00;37.12;102104.56;4958916;28;47157;-72
2022/10/11 09:15:40;;;;;;;;;5.33;3.67;;;;;21.56;35.80;102104.13;4958177;28;45404;-70
2022/10/11 09:18:23;;;;;;;;;3.67;2.67;;;;;21.74;35.82;102094.84;4958192;28;45409;-72
2022/10/11 09:21:22;;;;;;;;;2.00;2.00;;;;;21.85;34.74;102097.09;4959280;28;45441;-73
2022/10/11 09:24:02;;;;;;;;;5.00;2.00;;;;;21.91;35.00;102100.94;4957662;28;45766;-74
2022/10/11 09:26:51;;;;;;;;;2.33;2.33;;;;;21.67;34.71;102018.13;4955813;28;45539;-73
2022/10/11 09:29:31;;;;;;;;;5.00;4.00;;;;;21.75;35.51;102081.13;4957980;28;46351;-71
2022/10/11 09:31:57;;;;;;;;;3.00;3.00;;;;;20.98;35.50;101976.81;4957127;28;45553;-73
2022/10/11 09:34:31;;;;;;;;;4.33;3.00;;;;;21.88;35.34;102099.44;4958542;28;45611;-71
2022/10/11 09:37:05;;;;;;;;;4.00;2.00;;;;;20.42;36.52;101962.72;4957967;28;45493;-71
2022/10/11 09:39:34;;;;;;;;;2.33;1.67;;;;;20.98;36.82;102099.31;4947602;28;45451;-73
2022/10/11 09:42:01;;;;;;;;;4.33;3.33;;;;;20.80;37.48;102102.31;4959468;28;45303;-72
2022/10/11 09:44:31;;;;;;;;;5.00;3.00;;;;;20.40;38.36;102092.53;4958723;28;46169;-72
2022/10/11 09:46:57;;;;;;;;;3.00;3.00;;;;;19.71;39.45;102030.19;4958754;28;45303;-71
2022/10/11 09:49:29;;;;;;;;;2.00;2.00;;;;;19.61;40.64;102093.41;4956332;28;45307;-74
2022/10/11 09:51:59;;;;;;;;;3.00;3.00;;;;;19.45;41.16;102086.19;4959629;28;45288;-72
2022/10/11 09:54:46;;;;;;;;;4.00;4.00;;;;;19.13;41.75;102087.00;4949498;28;46217;-72
2022/10/11 09:57:24;;;;;;;;;5.33;4.33;;;;;18.30;43.51;102065.41;4976217;28;45444;-73
2022/10/11 10:00:17;;;;;;;;;3.67;3.67;;;;;18.22;44.70;102086.91;4976137;28;45246;-69
2022/10/11 10:02:45;;;;;;;;;3.33;3.33;;;;;17.98;44.88;102087.59;4974579;28;45664;-73
2022/10/11 10:05:16;;;;;;;;;4.67;4.67;;;;;17.46;46.51;102087.59;4977482;28;46985;-74
2022/10/11 10:08:09;;;;;;;;;10.33;6.67;;;;;17.23;47.13;102071.09;4975857;28;45434;-71
2022/10/11 10:10:50;;;;;;;;;2.33;2.33;;;;;17.09;47.49;102068.97;4977301;28;45311;-73
2022/10/11 10:13:27;;;;;;;;;0.33;0.33;;;;;16.39;48.78;102011.47;4960089;28;45156;-73
2022/10/11 10:15:57;;;;;;;;;2.00;2.00;;;;;16.63;49.31;102078.03;4957059;28;46956;-74
2022/10/11 10:18:31;;;;;;;;;5.00;4.00;;;;;16.68;49.25;102075.78;4971776;28;45655;-73
2022/10/11 10:21:01;;;;;;;;;9.00;6.00;;;;;16.78;49.23;102091.81;4958343;28;45462;-72
2022/10/11 10:23:32;;;;;;;;;9.00;3.67;;;;;15.88;49.58;101953.88;4958263;28;45538;-76
2022/10/11 10:26:10;;;;;;;;;7.33;4.00;;;;;16.45;49.89;102067.25;4943846;28;45547;-72
2022/10/11 10:28:35;;;;;;;;;5.67;5.67;;;;;16.16;49.77;102031.66;4979788;28;45460;-71
2022/10/11 10:31:00;;;;;;;;;5.67;5.67;;;;;16.06;50.06;102043.31;4978784;28;45385;-75
2022/10/11 10:33:31;;;;;;;;;8.00;5.67;;;;;16.32;50.65;102085.53;4976890;28;45481;-75
2022/10/11 10:36:11;;;;;;;;;8.33;6.00;;;;;16.48;50.27;102090.28;4975462;28;45864;-74
2022/10/11 10:38:48;;;;;;;;;8.00;8.00;;;;;16.29;50.44;102064.38;4974443;28;45565;-72
2022/10/11 10:41:16;;;;;;;;;8.67;8.67;;;;;16.49;49.89;102078.53;4961977;28;45501;-72
2022/10/11 10:43:54;;;;;;;;;10.33;10.00;;;;;16.51;50.36;102081.91;4960839;28;45713;-71
2022/10/11 10:46:46;;;;;;;;;9.67;8.33;;;;;16.42;50.54;102081.00;4961580;28;45502;-73
2022/10/11 10:49:17;;;;;;;;;8.00;6.00;;;;;16.31;50.82;102068.59;4957274;28;45644;-70
2022/10/11 10:52:05;;;;;;;;;8.00;5.33;;;;;15.62;50.75;101972.50;4958613;28;45520;-72
2022/10/11 10:54:50;;;;;;;;;7.33;6.00;;;;;16.32;50.94;102080.19;4966729;28;45434;-74
2022/10/11 10:57:22;;;;;;;;;4.00;1.33;;;;;16.13;51.35;102065.84;4975586;28;46926;-72
2022/10/11 11:00:19;;;;;;;;;6.33;5.00;;;;;16.27;51.23;102072.56;4960300;28;46400;-70
2022/10/11 11:02:48;;;;;;;;;6.00;5.00;;;;;15.62;51.21;102004.66;4960640;28;45599;-70
2022/10/11 11:05:22;;;;;;;;;9.67;7.33;;;;;16.24;51.93;102080.09;4977929;28;45406;-73
2022/10/11 11:08:03;;;;;;;;;6.00;4.67;;;;;16.16;50.99;102080.81;4979442;28;45589;-70
2022/10/11 11:10:43;;;;;;;;;3.00;3.00;;;;;16.00;51.73;102049.25;4964036;28;45272;-71
2022/10/11 11:13:21;;;;;;;;;4.67;4.67;;;;;16.23;51.72;102079.25;4962042;28;45579;-74
2022/10/11 11:16:02;;;;;;;;;6.00;6.00;;;;;16.24;51.71;102077.41;4963342;28;45559;-72
2022/10/11 11:18:39;;;;;;;;;4.33;4.33;;;;;16.10;51.48;102042.00;4955645;28;47003;-72
2022/10/11 11:21:42;;;;;;;;;5.33;4.00;;;;;16.28;51.45;102070.75;4957017;28;45519;-73
2022/10/11 11:24:32;;;;;;;;;5.67;4.33;;;;;16.30;51.40;102071.44;4958532;28;45528;-72
2022/10/11 11:27:07;;;;;;;;;2.33;2.33;;;;;16.19;51.28;102063.56;4962243;28;45533;-72
2022/10/11 11:29:58;;;;;;;;;7.00;5.00;;;;;15.92;51.25;102026.84;4963106;28;46385;-72
2022/10/11 11:32:48;;;;;;;;;3.00;3.00;;;;;16.25;51.36;102063.84;4944797;28;45469;-73
2022/10/11 11:35:26;;;;;;;;;5.00;4.00;;;;;16.21;51.28;102061.56;4960048;28;45498;-75
2022/10/11 11:37:56;;;;;;;;;4.67;4.67;;;;;16.34;51.60;102079.03;4961081;28;45430;-73
2022/10/11 11:40:53;;;;;;;;;8.00;5.00;;;;;16.33;51.60;102066.59;4960307;28;45343;-72